sensor_id;sensor_type;location;lat;lon;timestamp;P1;durP1;ratioP1;P2;durP2;ratioP2
36377;SDS011;22402;42.746;23.606;2024-01-07T00:01:26;8.27;;;4.03;;
36377;SDS011;22402;42.746;23.606;2024-01-07T00:03:52;9.97;;;3.17;;
36377;SDS011;22402;42.746;23.606;2024-01-07T00:06:18;8.60;;;3.70;;
36377;SDS011;22402;42.746;23.606;2024-01-07T00:08:43;6.07;;;3.23;;
36377;SDS011;22402;42.746;23.606;2024-01-07T00:11:09;8.90;;;3.27;;
36377;SDS011;22402;42.746;23.606;2024-01-07T00:13:35;8.43;;;3.87;;
36377;SDS011;22402;42.746;23.606;2024-01-07T00:16:01;10.30;;;3.03;;
36377;SDS011;22402;42.746;23.606;2024-01-07T00:18:26;11.40;;;3.23;;
36377;SDS011;22402;42.746;23.606;2024-01-07T00:20:53;7.00;;;2.50;;
36377;SDS011;22402;42.746;23.606;2024-01-07T00:23:18;8.73;;;3.37;;
36377;SDS011;22402;42.746;23.606;2024-01-07T00:25:45;6.63;;;3.23;;
36377;SDS011;22402;42.746;23.606;2024-01-07T00:28:13;10.93;;;2.73;;
36377;SDS011;22402;42.746;23.606;2024-01-07T00:30:39;5.90;;;3.37;;
36377;SDS011;22402;42.746;23.606;2024-01-07T00:33:04;13.33;;;3.07;;
36377;SDS011;22402;42.746;23.606;2024-01-07T00:35:33;11.57;;;3.40;;
36377;SDS011;22402;42.746;23.606;2024-01-07T00:37:58;5.00;;;2.60;;
36377;SDS011;22402;42.746;23.606;2024-01-07T00:40:23;12.03;;;3.33;;
36377;SDS011;22402;42.746;23.606;2024-01-07T00:42:50;9.30;;;3.27;;
36377;SDS011;22402;42.746;23.606;2024-01-07T00:45:16;4.53;;;3.07;;
36377;SDS011;22402;42.746;23.606;2024-01-07T00:47:43;7.40;;;3.10;;
36377;SDS011;22402;42.746;23.606;2024-01-07T00:50:09;5.67;;;2.50;;
36377;SDS011;22402;42.746;23.606;2024-01-07T00:52:35;6.50;;;2.40;;
36377;SDS011;22402;42.746;23.606;2024-01-07T00:55:02;8.07;;;3.53;;
36377;SDS011;22402;42.746;23.606;2024-01-07T00:57:31;9.97;;;3.10;;
36377;SDS011;22402;42.746;23.606;2024-01-07T00:59:57;4.97;;;2.77;;
36377;SDS011;22402;42.746;23.606;2024-01-07T01:02:23;5.50;;;2.87;;
36377;SDS011;22402;42.746;23.606;2024-01-07T01:04:49;6.20;;;2.87;;
36377;SDS011;22402;42.746;23.606;2024-01-07T01:07:14;8.33;;;2.60;;
36377;SDS011;22402;42.746;23.606;2024-01-07T01:09:39;10.83;;;2.97;;
36377;SDS011;22402;42.746;23.606;2024-01-07T01:12:05;8.67;;;3.20;;
36377;SDS011;22402;42.746;23.606;2024-01-07T01:14:31;8.33;;;3.47;;
36377;SDS011;22402;42.746;23.606;2024-01-07T01:16:56;7.73;;;2.90;;
36377;SDS011;22402;42.746;23.606;2024-01-07T01:19:21;8.67;;;3.03;;
36377;SDS011;22402;42.746;23.606;2024-01-07T01:21:47;7.53;;;2.00;;
36377;SDS011;22402;42.746;23.606;2024-01-07T01:24:12;12.10;;;3.03;;
36377;SDS011;22402;42.746;23.606;2024-01-07T01:26:38;5.77;;;2.63;;
36377;SDS011;22402;42.746;23.606;2024-01-07T01:29:04;7.00;;;3.07;;
36377;SDS011;22402;42.746;23.606;2024-01-07T01:31:30;12.53;;;3.47;;
36377;SDS011;22402;42.746;23.606;2024-01-07T01:33:55;10.30;;;3.37;;
36377;SDS011;22402;42.746;23.606;2024-01-07T01:36:21;7.53;;;2.37;;
36377;SDS011;22402;42.746;23.606;2024-01-07T01:38:46;5.83;;;2.43;;
36377;SDS011;22402;42.746;23.606;2024-01-07T01:41:13;9.47;;;2.47;;
36377;SDS011;22402;42.746;23.606;2024-01-07T01:43:39;4.30;;;2.37;;
36377;SDS011;22402;42.746;23.606;2024-01-07T01:46:05;6.00;;;2.97;;
36377;SDS011;22402;42.746;23.606;2024-01-07T01:48:30;5.93;;;2.80;;
36377;SDS011;22402;42.746;23.606;2024-01-07T01:50:55;5.10;;;2.33;;
36377;SDS011;22402;42.746;23.606;2024-01-07T01:53:23;26.57;;;14.50;;
36377;SDS011;22402;42.746;23.606;2024-01-07T01:55:50;7.80;;;4.43;;
36377;SDS011;22402;42.746;23.606;2024-01-07T01:58:15;5.07;;;2.50;;
36377;SDS011;22402;42.746;23.606;2024-01-07T02:00:44;5.57;;;2.60;;
36377;SDS011;22402;42.746;23.606;2024-01-07T02:03:09;7.70;;;2.00;;
36377;SDS011;22402;42.746;23.606;2024-01-07T02:05:35;8.27;;;3.00;;
36377;SDS011;22402;42.746;23.606;2024-01-07T02:08:00;13.40;;;2.30;;
36377;SDS011;22402;42.746;23.606;2024-01-07T02:10:26;8.37;;;2.83;;
36377;SDS011;22402;42.746;23.606;2024-01-07T02:12:52;4.40;;;2.20;;
36377;SDS011;22402;42.746;23.606;2024-01-07T02:15:17;5.97;;;2.20;;
36377;SDS011;22402;42.746;23.606;2024-01-07T02:17:43;5.83;;;1.93;;
36377;SDS011;22402;42.746;23.606;2024-01-07T02:20:08;7.20;;;2.50;;
36377;SDS011;22402;42.746;23.606;2024-01-07T02:22:34;7.10;;;2.50;;
36377;SDS011;22402;42.746;23.606;2024-01-07T02:25:00;8.23;;;3.20;;
36377;SDS011;22402;42.746;23.606;2024-01-07T02:27:25;10.33;;;2.97;;
36377;SDS011;22402;42.746;23.606;2024-01-07T02:29:50;6.57;;;2.90;;
36377;SDS011;22402;42.746;23.606;2024-01-07T02:32:16;6.83;;;2.60;;
36377;SDS011;22402;42.746;23.606;2024-01-07T02:34:41;9.97;;;2.60;;
36377;SDS011;22402;42.746;23.606;2024-01-07T02:37:07;5.13;;;2.67;;
36377;SDS011;22402;42.746;23.606;2024-01-07T02:39:32;10.70;;;2.27;;
36377;SDS011;22402;42.746;23.606;2024-01-07T02:41:58;10.23;;;2.83;;
36377;SDS011;22402;42.746;23.606;2024-01-07T02:44:24;5.87;;;2.60;;
36377;SDS011;22402;42.746;23.606;2024-01-07T02:46:50;6.23;;;2.47;;
36377;SDS011;22402;42.746;23.606;2024-01-07T02:49:15;6.47;;;2.27;;
36377;SDS011;22402;42.746;23.606;2024-01-07T02:51:40;7.00;;;2.00;;
36377;SDS011;22402;42.746;23.606;2024-01-07T02:54:07;5.00;;;2.20;;
36377;SDS011;22402;42.746;23.606;2024-01-07T02:56:33;7.27;;;2.50;;
36377;SDS011;22402;42.746;23.606;2024-01-07T02:58:59;5.33;;;2.10;;
36377;SDS011;22402;42.746;23.606;2024-01-07T03:01:25;5.70;;;2.57;;
36377;SDS011;22402;42.746;23.606;2024-01-07T03:03:50;7.30;;;2.43;;
36377;SDS011;22402;42.746;23.606;2024-01-07T03:06:16;7.77;;;3.00;;
36377;SDS011;22402;42.746;23.606;2024-01-07T03:08:42;8.00;;;3.27;;
36377;SDS011;22402;42.746;23.606;2024-01-07T03:11:08;3.80;;;2.23;;
36377;SDS011;22402;42.746;23.606;2024-01-07T03:13:33;8.00;;;3.43;;
36377;SDS011;22402;42.746;23.606;2024-01-07T03:15:59;6.07;;;3.00;;
36377;SDS011;22402;42.746;23.606;2024-01-07T03:18:24;16.43;;;2.97;;
36377;SDS011;22402;42.746;23.606;2024-01-07T03:20:50;8.27;;;3.63;;
36377;SDS011;22402;42.746;23.606;2024-01-07T03:23:16;7.43;;;3.03;;
36377;SDS011;22402;42.746;23.606;2024-01-07T03:25:43;5.70;;;2.30;;
36377;SDS011;22402;42.746;23.606;2024-01-07T03:28:09;6.47;;;2.30;;
36377;SDS011;22402;42.746;23.606;2024-01-07T03:30:35;9.13;;;3.13;;
36377;SDS011;22402;42.746;23.606;2024-01-07T03:33:00;5.20;;;2.53;;
36377;SDS011;22402;42.746;23.606;2024-01-07T03:35:25;5.63;;;2.60;;
36377;SDS011;22402;42.746;23.606;2024-01-07T03:37:52;8.27;;;2.20;;
36377;SDS011;22402;42.746;23.606;2024-01-07T03:40:18;4.13;;;2.03;;
36377;SDS011;22402;42.746;23.606;2024-01-07T03:42:43;12.33;;;3.47;;
36377;SDS011;22402;42.746;23.606;2024-01-07T03:45:09;8.37;;;2.87;;
36377;SDS011;22402;42.746;23.606;2024-01-07T03:47:34;10.20;;;3.00;;
36377;SDS011;22402;42.746;23.606;2024-01-07T03:49:59;6.73;;;3.40;;
36377;SDS011;22402;42.746;23.606;2024-01-07T03:52:26;7.70;;;2.73;;
36377;SDS011;22402;42.746;23.606;2024-01-07T03:54:51;11.80;;;5.57;;
36377;SDS011;22402;42.746;23.606;2024-01-07T03:57:17;13.13;;;5.37;;
36377;SDS011;22402;42.746;23.606;2024-01-07T03:59:42;10.63;;;3.47;;
36377;SDS011;22402;42.746;23.606;2024-01-07T04:02:07;9.87;;;4.17;;
36377;SDS011;22402;42.746;23.606;2024-01-07T04:04:33;11.10;;;4.60;;
36377;SDS011;22402;42.746;23.606;2024-01-07T04:07:01;9.33;;;4.53;;
36377;SDS011;22402;42.746;23.606;2024-01-07T04:09:27;7.63;;;3.83;;
36377;SDS011;22402;42.746;23.606;2024-01-07T04:11:52;8.00;;;4.10;;
36377;SDS011;22402;42.746;23.606;2024-01-07T04:14:18;7.90;;;4.20;;
36377;SDS011;22402;42.746;23.606;2024-01-07T04:16:43;11.23;;;4.80;;
36377;SDS011;22402;42.746;23.606;2024-01-07T04:19:08;5.53;;;3.87;;
36377;SDS011;22402;42.746;23.606;2024-01-07T04:21:34;7.60;;;4.37;;
36377;SDS011;22402;42.746;23.606;2024-01-07T04:24:00;5.63;;;4.10;;
36377;SDS011;22402;42.746;23.606;2024-01-07T04:26:26;7.50;;;4.23;;
36377;SDS011;22402;42.746;23.606;2024-01-07T04:28:52;6.60;;;3.83;;
36377;SDS011;22402;42.746;23.606;2024-01-07T04:31:17;5.90;;;3.57;;
36377;SDS011;22402;42.746;23.606;2024-01-07T04:33:43;8.33;;;5.03;;
36377;SDS011;22402;42.746;23.606;2024-01-07T04:36:08;10.90;;;6.43;;
36377;SDS011;22402;42.746;23.606;2024-01-07T04:38:34;8.93;;;5.80;;
36377;SDS011;22402;42.746;23.606;2024-01-07T04:41:00;10.03;;;7.10;;
36377;SDS011;22402;42.746;23.606;2024-01-07T04:43:26;13.17;;;7.60;;
36377;SDS011;22402;42.746;23.606;2024-01-07T04:45:51;15.90;;;8.23;;
36377;SDS011;22402;42.746;23.606;2024-01-07T04:48:16;11.73;;;8.07;;
36377;SDS011;22402;42.746;23.606;2024-01-07T04:50:42;15.20;;;8.97;;
36377;SDS011;22402;42.746;23.606;2024-01-07T04:53:08;11.23;;;8.13;;
36377;SDS011;22402;42.746;23.606;2024-01-07T04:55:37;12.73;;;8.07;;
36377;SDS011;22402;42.746;23.606;2024-01-07T04:58:03;11.50;;;8.33;;
36377;SDS011;22402;42.746;23.606;2024-01-07T05:00:29;14.73;;;7.80;;
36377;SDS011;22402;42.746;23.606;2024-01-07T05:02:55;10.90;;;7.87;;
36377;SDS011;22402;42.746;23.606;2024-01-07T05:05:20;10.57;;;7.87;;
36377;SDS011;22402;42.746;23.606;2024-01-07T05:07:46;8.77;;;7.23;;
36377;SDS011;22402;42.746;23.606;2024-01-07T05:10:11;9.20;;;6.80;;
36377;SDS011;22402;42.746;23.606;2024-01-07T05:12:37;9.43;;;6.67;;
36377;SDS011;22402;42.746;23.606;2024-01-07T05:15:02;10.07;;;5.90;;
36377;SDS011;22402;42.746;23.606;2024-01-07T05:17:29;12.53;;;7.40;;
36377;SDS011;22402;42.746;23.606;2024-01-07T05:19:54;8.93;;;6.93;;
36377;SDS011;22402;42.746;23.606;2024-01-07T05:22:20;9.40;;;6.23;;
36377;SDS011;22402;42.746;23.606;2024-01-07T05:24:46;8.10;;;5.40;;
36377;SDS011;22402;42.746;23.606;2024-01-07T05:27:12;6.17;;;5.13;;
36377;SDS011;22402;42.746;23.606;2024-01-07T05:29:37;9.20;;;4.97;;
36377;SDS011;22402;42.746;23.606;2024-01-07T05:32:03;24.67;;;13.57;;
36377;SDS011;22402;42.746;23.606;2024-01-07T05:34:29;6.57;;;4.67;;
36377;SDS011;22402;42.746;23.606;2024-01-07T05:36:54;8.43;;;6.17;;
36377;SDS011;22402;42.746;23.606;2024-01-07T05:39:20;7.40;;;4.90;;
36377;SDS011;22402;42.746;23.606;2024-01-07T05:41:46;5.43;;;4.57;;
36377;SDS011;22402;42.746;23.606;2024-01-07T05:44:11;5.63;;;4.60;;
36377;SDS011;22402;42.746;23.606;2024-01-07T05:46:40;10.53;;;6.63;;
36377;SDS011;22402;42.746;23.606;2024-01-07T05:49:06;8.93;;;6.13;;
36377;SDS011;22402;42.746;23.606;2024-01-07T05:51:31;8.20;;;5.90;;
36377;SDS011;22402;42.746;23.606;2024-01-07T05:53:57;8.13;;;5.03;;
36377;SDS011;22402;42.746;23.606;2024-01-07T05:57:23;10.40;;;5.27;;
36377;SDS011;22402;42.746;23.606;2024-01-07T05:59:48;6.43;;;4.50;;
36377;SDS011;22402;42.746;23.606;2024-01-07T06:02:15;8.40;;;4.00;;
36377;SDS011;22402;42.746;23.606;2024-01-07T06:04:42;4.07;;;2.97;;
36377;SDS011;22402;42.746;23.606;2024-01-07T06:07:34;9.10;;;3.33;;
36377;SDS011;22402;42.746;23.606;2024-01-07T06:10:00;5.63;;;3.63;;
36377;SDS011;22402;42.746;23.606;2024-01-07T06:12:25;5.90;;;3.90;;
36377;SDS011;22402;42.746;23.606;2024-01-07T06:14:50;16.73;;;8.30;;
36377;SDS011;22402;42.746;23.606;2024-01-07T06:17:16;14.23;;;7.40;;
36377;SDS011;22402;42.746;23.606;2024-01-07T06:19:41;11.50;;;8.80;;
36377;SDS011;22402;42.746;23.606;2024-01-07T06:22:07;21.13;;;16.07;;
36377;SDS011;22402;42.746;23.606;2024-01-07T06:24:32;24.43;;;20.03;;
36377;SDS011;22402;42.746;23.606;2024-01-07T06:26:58;35.60;;;22.23;;
36377;SDS011;22402;42.746;23.606;2024-01-07T06:29:24;31.37;;;23.00;;
36377;SDS011;22402;42.746;23.606;2024-01-07T06:31:49;37.97;;;25.33;;
36377;SDS011;22402;42.746;23.606;2024-01-07T06:34:15;38.70;;;28.40;;
36377;SDS011;22402;42.746;23.606;2024-01-07T06:36:40;31.13;;;23.80;;
36377;SDS011;22402;42.746;23.606;2024-01-07T06:39:09;33.17;;;23.40;;
36377;SDS011;22402;42.746;23.606;2024-01-07T06:41:34;31.17;;;23.63;;
36377;SDS011;22402;42.746;23.606;2024-01-07T06:44:00;30.13;;;23.67;;
36377;SDS011;22402;42.746;23.606;2024-01-07T06:46:26;27.73;;;22.00;;
36377;SDS011;22402;42.746;23.606;2024-01-07T06:48:52;28.00;;;20.10;;
36377;SDS011;22402;42.746;23.606;2024-01-07T06:51:17;26.90;;;19.70;;
36377;SDS011;22402;42.746;23.606;2024-01-07T06:53:43;28.53;;;21.93;;
36377;SDS011;22402;42.746;23.606;2024-01-07T06:56:08;33.30;;;24.03;;
36377;SDS011;22402;42.746;23.606;2024-01-07T06:58:33;31.20;;;22.90;;
36377;SDS011;22402;42.746;23.606;2024-01-07T07:00:59;30.67;;;22.40;;
36377;SDS011;22402;42.746;23.606;2024-01-07T07:03:24;26.63;;;19.00;;
36377;SDS011;22402;42.746;23.606;2024-01-07T07:05:50;20.77;;;16.00;;
36377;SDS011;22402;42.746;23.606;2024-01-07T07:08:16;21.67;;;15.37;;
36377;SDS011;22402;42.746;23.606;2024-01-07T07:10:41;22.07;;;14.63;;
36377;SDS011;22402;42.746;23.606;2024-01-07T07:13:06;18.67;;;13.83;;
36377;SDS011;22402;42.746;23.606;2024-01-07T07:15:32;18.90;;;12.50;;
36377;SDS011;22402;42.746;23.606;2024-01-07T07:17:57;16.50;;;13.33;;
36377;SDS011;22402;42.746;23.606;2024-01-07T07:20:23;26.27;;;19.30;;
36377;SDS011;22402;42.746;23.606;2024-01-07T07:22:48;26.00;;;18.50;;
36377;SDS011;22402;42.746;23.606;2024-01-07T07:25:14;24.00;;;15.87;;
36377;SDS011;22402;42.746;23.606;2024-01-07T07:27:39;20.20;;;14.00;;
36377;SDS011;22402;42.746;23.606;2024-01-07T07:30:05;18.57;;;12.60;;
36377;SDS011;22402;42.746;23.606;2024-01-07T07:32:31;17.93;;;13.67;;
36377;SDS011;22402;42.746;23.606;2024-01-07T07:34:56;16.07;;;11.60;;
36377;SDS011;22402;42.746;23.606;2024-01-07T07:37:23;16.27;;;10.10;;
36377;SDS011;22402;42.746;23.606;2024-01-07T07:39:48;14.20;;;10.13;;
36377;SDS011;22402;42.746;23.606;2024-01-07T07:42:14;14.63;;;8.80;;
36377;SDS011;22402;42.746;23.606;2024-01-07T07:44:40;11.47;;;7.87;;
36377;SDS011;22402;42.746;23.606;2024-01-07T07:47:06;13.20;;;8.00;;
36377;SDS011;22402;42.746;23.606;2024-01-07T07:49:32;10.10;;;6.40;;
36377;SDS011;22402;42.746;23.606;2024-01-07T07:51:58;9.20;;;6.70;;
36377;SDS011;22402;42.746;23.606;2024-01-07T07:54:23;11.53;;;6.37;;
36377;SDS011;22402;42.746;23.606;2024-01-07T07:56:49;8.63;;;6.10;;
36377;SDS011;22402;42.746;23.606;2024-01-07T07:59:14;8.23;;;6.40;;
36377;SDS011;22402;42.746;23.606;2024-01-07T08:01:40;8.03;;;5.83;;
36377;SDS011;22402;42.746;23.606;2024-01-07T08:04:05;13.80;;;7.50;;
36377;SDS011;22402;42.746;23.606;2024-01-07T08:06:31;15.03;;;9.10;;
36377;SDS011;22402;42.746;23.606;2024-01-07T08:08:56;10.03;;;5.90;;
36377;SDS011;22402;42.746;23.606;2024-01-07T08:11:21;6.30;;;5.10;;
36377;SDS011;22402;42.746;23.606;2024-01-07T08:13:47;9.27;;;6.00;;
36377;SDS011;22402;42.746;23.606;2024-01-07T08:16:12;12.73;;;5.83;;
36377;SDS011;22402;42.746;23.606;2024-01-07T08:18:38;11.60;;;6.20;;
36377;SDS011;22402;42.746;23.606;2024-01-07T08:21:04;9.60;;;7.80;;
36377;SDS011;22402;42.746;23.606;2024-01-07T08:23:29;9.57;;;6.97;;
36377;SDS011;22402;42.746;23.606;2024-01-07T08:25:55;11.00;;;7.70;;
36377;SDS011;22402;42.746;23.606;2024-01-07T08:28:21;9.23;;;6.50;;
36377;SDS011;22402;42.746;23.606;2024-01-07T08:30:47;11.20;;;7.67;;
36377;SDS011;22402;42.746;23.606;2024-01-07T08:33:12;11.27;;;7.43;;
36377;SDS011;22402;42.746;23.606;2024-01-07T08:35:38;7.60;;;6.70;;
36377;SDS011;22402;42.746;23.606;2024-01-07T08:38:04;9.50;;;7.83;;
36377;SDS011;22402;42.746;23.606;2024-01-07T08:40:29;12.60;;;9.33;;
36377;SDS011;22402;42.746;23.606;2024-01-07T08:42:55;11.77;;;8.10;;
36377;SDS011;22402;42.746;23.606;2024-01-07T08:45:21;18.20;;;11.80;;
36377;SDS011;22402;42.746;23.606;2024-01-07T08:47:47;12.43;;;8.43;;
36377;SDS011;22402;42.746;23.606;2024-01-07T08:50:12;12.20;;;7.00;;
36377;SDS011;22402;42.746;23.606;2024-01-07T08:52:38;11.93;;;8.30;;
36377;SDS011;22402;42.746;23.606;2024-01-07T08:55:03;7.50;;;5.93;;
36377;SDS011;22402;42.746;23.606;2024-01-07T08:57:31;11.50;;;7.37;;
36377;SDS011;22402;42.746;23.606;2024-01-07T08:59:57;8.00;;;5.20;;
36377;SDS011;22402;42.746;23.606;2024-01-07T09:02:22;8.10;;;5.60;;
36377;SDS011;22402;42.746;23.606;2024-01-07T09:04:48;11.20;;;5.20;;
36377;SDS011;22402;42.746;23.606;2024-01-07T09:07:13;8.97;;;6.03;;
36377;SDS011;22402;42.746;23.606;2024-01-07T09:09:41;9.03;;;5.57;;
36377;SDS011;22402;42.746;23.606;2024-01-07T09:12:07;8.20;;;4.70;;
36377;SDS011;22402;42.746;23.606;2024-01-07T09:14:32;7.20;;;5.10;;
36377;SDS011;22402;42.746;23.606;2024-01-07T09:16:58;6.20;;;4.43;;
36377;SDS011;22402;42.746;23.606;2024-01-07T09:19:23;7.23;;;5.10;;
36377;SDS011;22402;42.746;23.606;2024-01-07T09:21:49;6.33;;;4.40;;
36377;SDS011;22402;42.746;23.606;2024-01-07T09:24:14;6.70;;;4.60;;
36377;SDS011;22402;42.746;23.606;2024-01-07T09:26:41;7.50;;;5.10;;
36377;SDS011;22402;42.746;23.606;2024-01-07T09:29:07;8.23;;;5.27;;
36377;SDS011;22402;42.746;23.606;2024-01-07T09:31:32;10.10;;;5.60;;
36377;SDS011;22402;42.746;23.606;2024-01-07T09:33:58;6.00;;;4.70;;
36377;SDS011;22402;42.746;23.606;2024-01-07T09:36:23;7.70;;;4.97;;
36377;SDS011;22402;42.746;23.606;2024-01-07T09:38:48;8.33;;;5.13;;
36377;SDS011;22402;42.746;23.606;2024-01-07T09:41:14;6.50;;;4.30;;
36377;SDS011;22402;42.746;23.606;2024-01-07T09:43:40;6.30;;;4.03;;
36377;SDS011;22402;42.746;23.606;2024-01-07T09:46:05;5.37;;;3.70;;
36377;SDS011;22402;42.746;23.606;2024-01-07T09:48:31;8.17;;;4.90;;
36377;SDS011;22402;42.746;23.606;2024-01-07T09:50:56;5.47;;;3.87;;
36377;SDS011;22402;42.746;23.606;2024-01-07T09:53:25;6.60;;;3.90;;
36377;SDS011;22402;42.746;23.606;2024-01-07T09:56:03;13.70;;;4.50;;
36377;SDS011;22402;42.746;23.606;2024-01-07T09:58:36;7.23;;;4.70;;
36377;SDS011;22402;42.746;23.606;2024-01-07T10:01:01;5.27;;;3.27;;
36377;SDS011;22402;42.746;23.606;2024-01-07T10:03:30;7.43;;;4.00;;
36377;SDS011;22402;42.746;23.606;2024-01-07T10:05:55;10.60;;;3.63;;
36377;SDS011;22402;42.746;23.606;2024-01-07T10:08:21;11.77;;;4.73;;
36377;SDS011;22402;42.746;23.606;2024-01-07T10:10:48;14.17;;;6.77;;
36377;SDS011;22402;42.746;23.606;2024-01-07T10:13:13;17.70;;;7.87;;
36377;SDS011;22402;42.746;23.606;2024-01-07T10:15:39;15.03;;;6.77;;
36377;SDS011;22402;42.746;23.606;2024-01-07T10:18:05;14.37;;;6.40;;
36377;SDS011;22402;42.746;23.606;2024-01-07T10:20:35;11.23;;;6.10;;
36377;SDS011;22402;42.746;23.606;2024-01-07T10:23:01;23.80;;;10.40;;
36377;SDS011;22402;42.746;23.606;2024-01-07T10:25:29;17.90;;;8.67;;
36377;SDS011;22402;42.746;23.606;2024-01-07T10:28:00;13.33;;;6.47;;
36377;SDS011;22402;42.746;23.606;2024-01-07T10:30:27;18.00;;;8.07;;
36377;SDS011;22402;42.746;23.606;2024-01-07T10:32:56;14.53;;;6.33;;
36377;SDS011;22402;42.746;23.606;2024-01-07T10:35:22;11.77;;;5.17;;
36377;SDS011;22402;42.746;23.606;2024-01-07T10:38:01;8.50;;;5.00;;
36377;SDS011;22402;42.746;23.606;2024-01-07T10:40:28;7.70;;;4.43;;
36377;SDS011;22402;42.746;23.606;2024-01-07T10:42:55;7.03;;;4.00;;
36377;SDS011;22402;42.746;23.606;2024-01-07T10:45:21;9.43;;;3.90;;
36377;SDS011;22402;42.746;23.606;2024-01-07T10:47:50;8.57;;;3.90;;
36377;SDS011;22402;42.746;23.606;2024-01-07T10:50:20;5.97;;;2.93;;
36377;SDS011;22402;42.746;23.606;2024-01-07T10:52:50;6.67;;;4.00;;
36377;SDS011;22402;42.746;23.606;2024-01-07T10:55:19;8.80;;;3.57;;
36377;SDS011;22402;42.746;23.606;2024-01-07T10:57:51;7.40;;;3.07;;
36377;SDS011;22402;42.746;23.606;2024-01-07T11:00:21;4.83;;;2.80;;
36377;SDS011;22402;42.746;23.606;2024-01-07T11:02:55;6.17;;;2.37;;
36377;SDS011;22402;42.746;23.606;2024-01-07T11:08:12;4.40;;;2.20;;
36377;SDS011;22402;42.746;23.606;2024-01-07T11:10:50;3.10;;;2.20;;
36377;SDS011;22402;42.746;23.606;2024-01-07T11:16:03;7.30;;;4.30;;
36377;SDS011;22402;42.746;23.606;2024-01-07T11:18:30;11.80;;;5.23;;
36377;SDS011;22402;42.746;23.606;2024-01-07T11:20:59;8.60;;;4.00;;
36377;SDS011;22402;42.746;23.606;2024-01-07T11:23:43;11.83;;;5.70;;
36377;SDS011;22402;42.746;23.606;2024-01-07T11:26:08;8.20;;;3.37;;
36377;SDS011;22402;42.746;23.606;2024-01-07T11:28:48;5.53;;;2.83;;
36377;SDS011;22402;42.746;23.606;2024-01-07T11:31:16;6.93;;;2.40;;
36377;SDS011;22402;42.746;23.606;2024-01-07T11:33:43;4.50;;;2.60;;
36377;SDS011;22402;42.746;23.606;2024-01-07T11:36:11;7.93;;;2.40;;
36377;SDS011;22402;42.746;23.606;2024-01-07T11:38:38;3.37;;;1.80;;
36377;SDS011;22402;42.746;23.606;2024-01-07T11:41:06;3.43;;;1.70;;
36377;SDS011;22402;42.746;23.606;2024-01-07T11:43:34;5.87;;;2.67;;
36377;SDS011;22402;42.746;23.606;2024-01-07T11:45:59;5.47;;;2.47;;
36377;SDS011;22402;42.746;23.606;2024-01-07T11:48:25;3.70;;;2.30;;
36377;SDS011;22402;42.746;23.606;2024-01-07T11:50:50;2.70;;;2.00;;
36377;SDS011;22402;42.746;23.606;2024-01-07T11:53:16;7.27;;;3.20;;
36377;SDS011;22402;42.746;23.606;2024-01-07T11:55:41;5.50;;;2.27;;
36377;SDS011;22402;42.746;23.606;2024-01-07T11:58:07;6.63;;;2.50;;
36377;SDS011;22402;42.746;23.606;2024-01-07T12:00:33;9.50;;;2.93;;
36377;SDS011;22402;42.746;23.606;2024-01-07T12:02:59;6.00;;;3.23;;
36377;SDS011;22402;42.746;23.606;2024-01-07T12:05:26;2.67;;;1.70;;
36377;SDS011;22402;42.746;23.606;2024-01-07T12:07:52;5.37;;;1.97;;
36377;SDS011;22402;42.746;23.606;2024-01-07T12:10:18;2.93;;;1.60;;
36377;SDS011;22402;42.746;23.606;2024-01-07T12:12:43;3.07;;;1.77;;
36377;SDS011;22402;42.746;23.606;2024-01-07T12:15:09;3.47;;;1.60;;
36377;SDS011;22402;42.746;23.606;2024-01-07T12:17:39;3.63;;;1.80;;
36377;SDS011;22402;42.746;23.606;2024-01-07T12:20:05;2.20;;;1.30;;
36377;SDS011;22402;42.746;23.606;2024-01-07T12:22:32;9.03;;;2.60;;
36377;SDS011;22402;42.746;23.606;2024-01-07T12:25:02;5.27;;;1.67;;
36377;SDS011;22402;42.746;23.606;2024-01-07T12:27:28;3.23;;;1.50;;
36377;SDS011;22402;42.746;23.606;2024-01-07T12:29:59;4.10;;;1.73;;
36377;SDS011;22402;42.746;23.606;2024-01-07T12:32:29;10.17;;;2.13;;
36377;SDS011;22402;42.746;23.606;2024-01-07T12:34:58;7.40;;;2.40;;
36377;SDS011;22402;42.746;23.606;2024-01-07T12:37:26;6.03;;;2.60;;
36377;SDS011;22402;42.746;23.606;2024-01-07T12:39:53;2.63;;;1.90;;
36377;SDS011;22402;42.746;23.606;2024-01-07T12:42:18;3.93;;;1.60;;
36377;SDS011;22402;42.746;23.606;2024-01-07T12:44:45;2.73;;;1.50;;
36377;SDS011;22402;42.746;23.606;2024-01-07T12:47:10;4.70;;;1.63;;
36377;SDS011;22402;42.746;23.606;2024-01-07T12:49:36;7.37;;;1.40;;
36377;SDS011;22402;42.746;23.606;2024-01-07T12:52:01;3.40;;;1.57;;
36377;SDS011;22402;42.746;23.606;2024-01-07T12:54:27;3.90;;;1.70;;
36377;SDS011;22402;42.746;23.606;2024-01-07T12:56:52;6.40;;;2.97;;
36377;SDS011;22402;42.746;23.606;2024-01-07T12:59:17;3.93;;;2.20;;
36377;SDS011;22402;42.746;23.606;2024-01-07T13:01:43;4.57;;;2.80;;
36377;SDS011;22402;42.746;23.606;2024-01-07T13:04:09;4.20;;;2.27;;
36377;SDS011;22402;42.746;23.606;2024-01-07T13:06:35;8.70;;;3.70;;
36377;SDS011;22402;42.746;23.606;2024-01-07T13:09:00;4.57;;;3.87;;
36377;SDS011;22402;42.746;23.606;2024-01-07T13:11:28;6.77;;;3.67;;
36377;SDS011;22402;42.746;23.606;2024-01-07T13:13:54;11.03;;;4.80;;
36377;SDS011;22402;42.746;23.606;2024-01-07T13:16:23;9.80;;;4.70;;
36377;SDS011;22402;42.746;23.606;2024-01-07T13:18:50;6.97;;;4.03;;
36377;SDS011;22402;42.746;23.606;2024-01-07T13:21:15;7.23;;;4.87;;
36377;SDS011;22402;42.746;23.606;2024-01-07T13:23:42;10.30;;;5.27;;
36377;SDS011;22402;42.746;23.606;2024-01-07T13:26:09;10.83;;;5.30;;
36377;SDS011;22402;42.746;23.606;2024-01-07T13:28:35;7.43;;;5.07;;
36377;SDS011;22402;42.746;23.606;2024-01-07T13:31:00;9.50;;;4.97;;
36377;SDS011;22402;42.746;23.606;2024-01-07T13:33:26;7.23;;;4.40;;
36377;SDS011;22402;42.746;23.606;2024-01-07T13:35:52;7.27;;;5.03;;
36377;SDS011;22402;42.746;23.606;2024-01-07T13:38:17;7.27;;;5.33;;
36377;SDS011;22402;42.746;23.606;2024-01-07T13:40:43;10.03;;;5.70;;
36377;SDS011;22402;42.746;23.606;2024-01-07T13:43:08;10.60;;;5.10;;
36377;SDS011;22402;42.746;23.606;2024-01-07T13:45:34;9.33;;;5.53;;
36377;SDS011;22402;42.746;23.606;2024-01-07T13:47:59;10.77;;;4.73;;
36377;SDS011;22402;42.746;23.606;2024-01-07T13:50:25;8.93;;;5.53;;
36377;SDS011;22402;42.746;23.606;2024-01-07T13:52:50;8.67;;;4.77;;
36377;SDS011;22402;42.746;23.606;2024-01-07T13:55:16;10.07;;;5.80;;
36377;SDS011;22402;42.746;23.606;2024-01-07T13:57:41;11.70;;;4.77;;
36377;SDS011;22402;42.746;23.606;2024-01-07T14:00:07;6.30;;;4.37;;
36377;SDS011;22402;42.746;23.606;2024-01-07T14:02:34;13.53;;;5.37;;
36377;SDS011;22402;42.746;23.606;2024-01-07T14:05:04;6.73;;;5.20;;
36377;SDS011;22402;42.746;23.606;2024-01-07T14:07:31;10.23;;;5.23;;
36377;SDS011;22402;42.746;23.606;2024-01-07T14:09:58;14.13;;;6.47;;
36377;SDS011;22402;42.746;23.606;2024-01-07T14:12:24;11.60;;;6.93;;
36377;SDS011;22402;42.746;23.606;2024-01-07T14:14:50;7.17;;;4.53;;
36377;SDS011;22402;42.746;23.606;2024-01-07T14:17:16;9.17;;;4.90;;
36377;SDS011;22402;42.746;23.606;2024-01-07T14:19:41;7.13;;;4.77;;
36377;SDS011;22402;42.746;23.606;2024-01-07T14:22:11;6.70;;;4.63;;
36377;SDS011;22402;42.746;23.606;2024-01-07T14:24:40;15.83;;;7.60;;
36377;SDS011;22402;42.746;23.606;2024-01-07T14:27:06;10.63;;;7.97;;
36377;SDS011;22402;42.746;23.606;2024-01-07T14:29:31;8.20;;;6.80;;